WUK411 EGGW-LRSM
Flight info
| Callsign | WUK411 |
|---|---|
| Flight time | 2h 14m |
| Altitude | 35000 |
| Route | MATCH Q295 BRAIN M197 REDFA DCT TACHA DCT ROBEG DCT POVEL L986 MAG DCT LASIS DCT MAPIK DCT KELEL DCT KEKED DCT KARIL |
| Aircraft | A21N/M-SDE1E2E3FGIJ1J4RWXY/LB1 |
Departure
| Time | 2026-04-15 11:36 |
|---|---|
| Airport | London Luton Airport (EGGW) |
Arrival
| Time | 2026-04-15 13:50 |
|---|---|
| Airport | Satu Mare International Airport (LRSM) |
| Time | Latitude | Longitude | Altitude | Speed | Heading |
|---|---|---|---|---|---|
| 2026-04-15 11:09 | 51.88145 | -0.37484 | 521 ft | 0 kts | 162° |
| 2026-04-15 11:15 | 51.88146 | -0.37484 | 520 ft | 0 kts | 162° |
| 2026-04-15 11:16 | 51.88146 | -0.37485 | 520 ft | 0 kts | 162° |
| 2026-04-15 11:25 | 51.88153 | -0.37488 | 520 ft | 4 kts | 162° |
| 2026-04-15 11:26 | 51.88178 | -0.37501 | 519 ft | 10 kts | 158° |
| 2026-04-15 11:26 | 51.88200 | -0.37523 | 519 ft | 8 kts | 129° |
| 2026-04-15 11:26 | 51.88212 | -0.37560 | 519 ft | 8 kts | 104° |
| 2026-04-15 11:26 | 51.88213 | -0.37564 | 519 ft | 47 kts | 103° |
| 2026-04-15 11:27 | 51.88213 | -0.37565 | 519 ft | 0 kts | 103° |
| 2026-04-15 11:29 | 51.88213 | -0.37564 | 519 ft | 0 kts | 103° |
| 2026-04-15 11:30 | 51.88211 | -0.37548 | 519 ft | 3 kts | 103° |
| 2026-04-15 11:30 | 51.88209 | -0.37511 | 519 ft | 4 kts | 88° |
| 2026-04-15 11:30 | 51.88216 | -0.37446 | 519 ft | 8 kts | 78° |
| 2026-04-15 11:30 | 51.88231 | -0.37329 | 520 ft | 11 kts | 84° |
| 2026-04-15 11:31 | 51.88187 | -0.37229 | 519 ft | 12 kts | 149° |
| 2026-04-15 11:31 | 51.88089 | -0.37168 | 512 ft | 18 kts | 163° |
| 2026-04-15 11:31 | 51.87969 | -0.37106 | 512 ft | 18 kts | 163° |
| 2026-04-15 11:31 | 51.87882 | -0.37061 | 513 ft | 7 kts | 160° |
| 2026-04-15 11:32 | 51.87857 | -0.37047 | 514 ft | 2 kts | 160° |
| 2026-04-15 11:32 | 51.87839 | -0.37036 | 515 ft | 4 kts | 161° |
| 2026-04-15 11:32 | 51.87800 | -0.37016 | 518 ft | 8 kts | 162° |
| 2026-04-15 11:32 | 51.87752 | -0.36991 | 521 ft | 7 kts | 162° |
| 2026-04-15 11:33 | 51.87724 | -0.36977 | 523 ft | 3 kts | 162° |
| 2026-04-15 11:33 | 51.87694 | -0.36962 | 525 ft | 5 kts | 163° |
| 2026-04-15 11:33 | 51.87664 | -0.36935 | 527 ft | 8 kts | 136° |
| 2026-04-15 11:33 | 51.87655 | -0.36817 | 528 ft | 15 kts | 77° |
| 2026-04-15 11:34 | 51.87687 | -0.36638 | 524 ft | 18 kts | 74° |
| 2026-04-15 11:34 | 51.87721 | -0.36438 | 522 ft | 19 kts | 74° |
| 2026-04-15 11:34 | 51.87758 | -0.36226 | 521 ft | 20 kts | 74° |
| 2026-04-15 11:34 | 51.87776 | -0.36037 | 520 ft | 16 kts | 108° |
| 2026-04-15 11:35 | 51.87693 | -0.35917 | 519 ft | 16 kts | 157° |
| 2026-04-15 11:35 | 51.87610 | -0.35998 | 519 ft | 26 kts | 248° |
| 2026-04-15 11:35 | 51.87495 | -0.36631 | 529 ft | 94 kts | 254° |
| 2026-04-15 11:35 | 51.87254 | -0.38072 | 575 ft | 160 kts | 249° |
| 2026-04-15 11:36 | 51.86961 | -0.39872 | 1215 ft | 169 kts | 247° |
| 2026-04-15 11:36 | 51.86370 | -0.41355 | 2134 ft | 153 kts | 215° |
| 2026-04-15 11:36 | 51.85507 | -0.42345 | 3096 ft | 153 kts | 212° |
| 2026-04-15 11:36 | 51.84567 | -0.43244 | 3715 ft | 164 kts | 209° |
| 2026-04-15 11:37 | 51.83500 | -0.44235 | 3962 ft | 190 kts | 210° |
| 2026-04-15 11:37 | 51.82274 | -0.45217 | 4099 ft | 203 kts | 200° |
| 2026-04-15 11:37 | 51.80838 | -0.45469 | 4404 ft | 213 kts | 175° |
| 2026-04-15 11:37 | 51.79427 | -0.44509 | 4959 ft | 236 kts | 147° |
| 2026-04-15 11:38 | 51.78436 | -0.42241 | 5545 ft | 265 kts | 113° |
| 2026-04-15 11:38 | 51.78176 | -0.39205 | 6145 ft | 280 kts | 98° |
| 2026-04-15 11:38 | 51.78156 | -0.36038 | 6670 ft | 284 kts | 96° |
| 2026-04-15 11:38 | 51.78094 | -0.32879 | 7228 ft | 282 kts | 103° |
| 2026-04-15 11:39 | 51.77759 | -0.29758 | 7805 ft | 282 kts | 108° |
| 2026-04-15 11:39 | 51.77329 | -0.26657 | 8392 ft | 284 kts | 109° |
| 2026-04-15 11:39 | 51.76870 | -0.23520 | 8994 ft | 287 kts | 110° |
| 2026-04-15 11:39 | 51.76404 | -0.20361 | 9602 ft | 291 kts | 110° |
| 2026-04-15 11:40 | 51.76070 | -0.17078 | 10065 ft | 309 kts | 97° |
| 2026-04-15 11:40 | 51.76175 | -0.13451 | 10390 ft | 336 kts | 89° |
| 2026-04-15 11:40 | 51.76542 | -0.09589 | 10791 ft | 356 kts | 83° |
| 2026-04-15 11:40 | 51.77083 | -0.05631 | 11473 ft | 365 kts | 81° |
| 2026-04-15 11:41 | 51.77700 | -0.01665 | 12240 ft | 371 kts | 80° |
| 2026-04-15 11:41 | 51.78352 | 0.02394 | 13109 ft | 373 kts | 80° |
| 2026-04-15 11:41 | 51.79001 | 0.06491 | 13912 ft | 378 kts | 80° |
| 2026-04-15 11:41 | 51.79640 | 0.10648 | 14589 ft | 383 kts | 81° |
| 2026-04-15 11:42 | 51.80268 | 0.14857 | 15271 ft | 388 kts | 81° |
| 2026-04-15 11:42 | 51.80893 | 0.19135 | 15963 ft | 393 kts | 81° |
| 2026-04-15 11:42 | 51.81515 | 0.23454 | 16673 ft | 396 kts | 82° |
| 2026-04-15 11:42 | 51.82132 | 0.27774 | 17335 ft | 401 kts | 82° |
| 2026-04-15 11:43 | 51.82761 | 0.32194 | 17993 ft | 406 kts | 82° |
| 2026-04-15 11:43 | 51.83397 | 0.36685 | 18589 ft | 411 kts | 82° |
| 2026-04-15 11:43 | 51.84039 | 0.41215 | 19162 ft | 414 kts | 82° |
| 2026-04-15 11:43 | 51.84684 | 0.45773 | 19733 ft | 417 kts | 82° |
| 2026-04-15 11:44 | 51.85334 | 0.50382 | 20259 ft | 421 kts | 82° |
| 2026-04-15 11:44 | 51.85979 | 0.54969 | 20823 ft | 424 kts | 82° |
| 2026-04-15 11:44 | 51.86636 | 0.59647 | 21379 ft | 428 kts | 82° |
| 2026-04-15 11:44 | 51.87297 | 0.64368 | 21935 ft | 431 kts | 82° |
| 2026-04-15 11:45 | 51.87960 | 0.69123 | 22507 ft | 435 kts | 82° |
| 2026-04-15 11:45 | 51.88628 | 0.73928 | 23059 ft | 438 kts | 82° |
| 2026-04-15 11:45 | 51.89298 | 0.78768 | 23588 ft | 442 kts | 82° |
| 2026-04-15 11:45 | 51.89972 | 0.83644 | 24005 ft | 445 kts | 82° |
| 2026-04-15 11:46 | 51.90642 | 0.88505 | 24379 ft | 448 kts | 82° |
| 2026-04-15 11:46 | 51.91323 | 0.93462 | 24767 ft | 451 kts | 83° |
| 2026-04-15 11:46 | 51.92003 | 0.98438 | 25108 ft | 454 kts | 82° |
| 2026-04-15 11:46 | 51.92688 | 1.03471 | 25464 ft | 458 kts | 82° |
| 2026-04-15 11:47 | 51.93379 | 1.08565 | 25676 ft | 466 kts | 82° |
| 2026-04-15 11:47 | 51.94077 | 1.13741 | 25842 ft | 475 kts | 82° |
| 2026-04-15 11:47 | 51.94786 | 1.19013 | 25998 ft | 482 kts | 82° |
| 2026-04-15 11:47 | 51.95497 | 1.24317 | 26144 ft | 490 kts | 82° |
| 2026-04-15 11:48 | 51.96226 | 1.29766 | 26289 ft | 497 kts | 82° |
| 2026-04-15 11:48 | 51.96962 | 1.35289 | 26433 ft | 504 kts | 82° |
| 2026-04-15 11:48 | 51.97707 | 1.40895 | 26571 ft | 510 kts | 82° |
| 2026-04-15 11:48 | 51.98457 | 1.46552 | 26806 ft | 513 kts | 82° |
| 2026-04-15 11:49 | 51.99198 | 1.52160 | 27166 ft | 513 kts | 82° |
| 2026-04-15 11:49 | 51.99945 | 1.57821 | 27567 ft | 512 kts | 82° |
| 2026-04-15 11:49 | 52.00686 | 1.63476 | 27939 ft | 512 kts | 82° |
| 2026-04-15 11:49 | 52.01424 | 1.69135 | 28289 ft | 512 kts | 82° |
| 2026-04-15 11:50 | 52.02156 | 1.74784 | 28677 ft | 511 kts | 82° |
| 2026-04-15 11:50 | 52.02885 | 1.80429 | 29064 ft | 511 kts | 82° |
| 2026-04-15 11:50 | 52.03612 | 1.86080 | 29448 ft | 510 kts | 82° |
| 2026-04-15 11:50 | 52.04326 | 1.91657 | 29834 ft | 510 kts | 83° |
| 2026-04-15 11:51 | 52.05045 | 1.97301 | 30160 ft | 510 kts | 82° |
| 2026-04-15 11:51 | 52.05761 | 2.02938 | 30445 ft | 510 kts | 82° |
| 2026-04-15 11:51 | 52.06475 | 2.08582 | 30726 ft | 509 kts | 82° |
| 2026-04-15 11:51 | 52.07186 | 2.14229 | 31004 ft | 509 kts | 82° |
| 2026-04-15 11:52 | 52.07894 | 2.19867 | 31285 ft | 509 kts | 82° |
| 2026-04-15 11:52 | 52.08600 | 2.25514 | 31558 ft | 509 kts | 82° |
| 2026-04-15 11:52 | 52.09301 | 2.31153 | 31824 ft | 508 kts | 82° |
| 2026-04-15 11:52 | 52.10000 | 2.36792 | 32091 ft | 508 kts | 82° |
| 2026-04-15 11:53 | 52.10688 | 2.42363 | 32350 ft | 508 kts | 82° |
| 2026-04-15 11:53 | 52.11440 | 2.47999 | 32579 ft | 509 kts | 77° |
| 2026-04-15 11:53 | 52.12410 | 2.53530 | 32912 ft | 507 kts | 76° |
| 2026-04-15 11:53 | 52.13416 | 2.59029 | 33174 ft | 507 kts | 76° |
| 2026-04-15 11:54 | 52.14099 | 2.62672 | 33320 ft | 508 kts | 76° |
| 2026-04-15 11:54 | 52.15141 | 2.68163 | 33531 ft | 508 kts | 75° |
| 2026-04-15 11:54 | 52.16189 | 2.73660 | 33748 ft | 508 kts | 75° |
| 2026-04-15 11:54 | 52.17576 | 2.80944 | 34037 ft | 508 kts | 75° |
| 2026-04-15 11:55 | 52.18280 | 2.84664 | 34162 ft | 507 kts | 76° |
| 2026-04-15 11:55 | 52.19319 | 2.90171 | 34338 ft | 507 kts | 76° |
| 2026-04-15 11:55 | 52.20336 | 2.95594 | 34526 ft | 507 kts | 76° |
| 2026-04-15 11:55 | 52.21359 | 3.01071 | 34777 ft | 504 kts | 75° |
| 2026-04-15 11:56 | 52.22376 | 3.06535 | 35015 ft | 502 kts | 75° |
| 2026-04-15 11:56 | 52.23390 | 3.11999 | 35110 ft | 503 kts | 75° |
| 2026-04-15 11:56 | 52.25267 | 3.23012 | 35115 ft | 500 kts | 83° |
| 2026-04-15 11:57 | 52.26020 | 3.39875 | 35121 ft | 497 kts | 91° |
| 2026-04-15 11:58 | 52.26223 | 3.51126 | 35124 ft | 497 kts | 91° |
| 2026-04-15 11:58 | 52.26405 | 3.62417 | 35124 ft | 497 kts | 91° |
| 2026-04-15 11:59 | 52.26594 | 3.73647 | 35127 ft | 497 kts | 91° |
| 2026-04-15 11:59 | 52.26786 | 3.84953 | 35129 ft | 497 kts | 91° |
| 2026-04-15 12:00 | 52.26969 | 3.96241 | 35123 ft | 497 kts | 90° |
| 2026-04-15 12:00 | 52.27140 | 4.07487 | 35136 ft | 498 kts | 90° |
| 2026-04-15 12:01 | 52.27301 | 4.18809 | 35149 ft | 498 kts | 90° |
| 2026-04-15 12:01 | 52.27451 | 4.30055 | 35146 ft | 498 kts | 90° |
| 2026-04-15 12:02 | 52.27590 | 4.41378 | 35156 ft | 498 kts | 91° |
| 2026-04-15 12:02 | 52.27719 | 4.52717 | 35155 ft | 498 kts | 91° |
| 2026-04-15 12:03 | 52.27836 | 4.63983 | 35165 ft | 498 kts | 91° |
| 2026-04-15 12:03 | 52.27943 | 4.75298 | 35154 ft | 498 kts | 91° |
| 2026-04-15 12:04 | 52.28039 | 4.86618 | 35159 ft | 498 kts | 91° |
| 2026-04-15 12:04 | 52.28123 | 4.97885 | 35154 ft | 498 kts | 90° |
| 2026-04-15 12:05 | 52.28197 | 5.09213 | 35163 ft | 499 kts | 90° |
| 2026-04-15 12:05 | 52.28262 | 5.20566 | 35165 ft | 499 kts | 90° |
| 2026-04-15 12:06 | 52.28314 | 5.31833 | 35159 ft | 499 kts | 91° |
| 2026-04-15 12:06 | 52.28357 | 5.43181 | 35161 ft | 499 kts | 91° |
| 2026-04-15 12:07 | 52.28387 | 5.54505 | 35160 ft | 498 kts | 90° |
| 2026-04-15 12:07 | 52.28407 | 5.65769 | 35174 ft | 498 kts | 90° |
| 2026-04-15 12:08 | 52.28417 | 5.77025 | 35177 ft | 497 kts | 90° |
| 2026-04-15 12:08 | 52.28416 | 5.88374 | 35175 ft | 498 kts | 90° |
| 2026-04-15 12:09 | 52.28404 | 5.99618 | 35172 ft | 498 kts | 90° |
| 2026-04-15 12:09 | 52.28381 | 6.10957 | 35171 ft | 498 kts | 90° |
| 2026-04-15 12:10 | 52.28347 | 6.22291 | 35172 ft | 498 kts | 90° |
| 2026-04-15 12:10 | 52.28303 | 6.33604 | 35176 ft | 498 kts | 90° |
| 2026-04-15 12:11 | 52.28248 | 6.44864 | 35176 ft | 498 kts | 90° |
| 2026-04-15 12:11 | 52.28180 | 6.56202 | 35181 ft | 498 kts | 90° |
| 2026-04-15 12:12 | 52.28103 | 6.67494 | 35178 ft | 498 kts | 90° |
| 2026-04-15 12:12 | 52.28015 | 6.78840 | 35184 ft | 498 kts | 90° |
| 2026-04-15 12:13 | 52.27917 | 6.90132 | 35181 ft | 498 kts | 90° |
| 2026-04-15 12:13 | 52.27806 | 7.01458 | 35187 ft | 498 kts | 89° |
| 2026-04-15 12:14 | 52.27687 | 7.12717 | 35186 ft | 498 kts | 89° |
| 2026-04-15 12:14 | 52.27557 | 7.24031 | 35189 ft | 498 kts | 90° |
| 2026-04-15 12:15 | 52.27415 | 7.35375 | 35197 ft | 498 kts | 90° |
| 2026-04-15 12:15 | 52.27262 | 7.46623 | 35200 ft | 498 kts | 89° |
| 2026-04-15 12:16 | 52.27099 | 7.57953 | 35212 ft | 498 kts | 89° |
| 2026-04-15 12:16 | 52.26926 | 7.69198 | 35211 ft | 498 kts | 89° |
| 2026-04-15 12:17 | 52.26741 | 7.80547 | 35220 ft | 498 kts | 89° |
| 2026-04-15 12:17 | 52.26546 | 7.91809 | 35211 ft | 499 kts | 90° |
| 2026-04-15 12:18 | 52.26339 | 8.03135 | 35207 ft | 498 kts | 89° |
| 2026-04-15 12:18 | 52.26121 | 8.14466 | 35203 ft | 498 kts | 89° |
| 2026-04-15 12:19 | 52.25894 | 8.25703 | 35215 ft | 498 kts | 89° |
| 2026-04-15 12:19 | 52.25655 | 8.37029 | 35203 ft | 498 kts | 89° |
| 2026-04-15 12:20 | 52.25404 | 8.48343 | 35213 ft | 498 kts | 89° |
| 2026-04-15 12:20 | 52.25146 | 8.59569 | 35216 ft | 498 kts | 89° |
| 2026-04-15 12:21 | 52.24875 | 8.70881 | 35225 ft | 498 kts | 89° |
| 2026-04-15 12:21 | 52.24593 | 8.82185 | 35228 ft | 498 kts | 89° |
| 2026-04-15 12:22 | 52.24302 | 8.93427 | 35247 ft | 498 kts | 89° |
| 2026-04-15 12:22 | 52.23997 | 9.04719 | 35238 ft | 497 kts | 89° |
| 2026-04-15 12:23 | 52.23684 | 9.15986 | 35237 ft | 497 kts | 89° |
| 2026-04-15 12:23 | 52.23352 | 9.27195 | 35236 ft | 497 kts | 90° |
| 2026-04-15 12:24 | 52.22752 | 9.38461 | 35229 ft | 498 kts | 92° |
| 2026-04-15 12:24 | 52.22009 | 9.49676 | 35228 ft | 499 kts | 93° |
| 2026-04-15 12:25 | 52.21261 | 9.60932 | 35237 ft | 499 kts | 92° |
| 2026-04-15 12:25 | 52.20527 | 9.72182 | 35237 ft | 499 kts | 92° |
| 2026-04-15 12:26 | 52.19791 | 9.83469 | 35235 ft | 499 kts | 92° |
| 2026-04-15 12:26 | 52.19053 | 9.94654 | 35235 ft | 498 kts | 92° |
| 2026-04-15 12:27 | 52.18300 | 10.05877 | 35231 ft | 498 kts | 92° |
| 2026-04-15 12:27 | 52.17540 | 10.17043 | 35230 ft | 498 kts | 92° |
| 2026-04-15 12:28 | 52.16763 | 10.28297 | 35234 ft | 498 kts | 92° |
| 2026-04-15 12:28 | 52.15976 | 10.39528 | 35250 ft | 498 kts | 92° |
| 2026-04-15 12:29 | 52.15183 | 10.50682 | 35237 ft | 498 kts | 92° |
| 2026-04-15 12:29 | 52.14376 | 10.61899 | 35237 ft | 498 kts | 92° |
| 2026-04-15 12:30 | 52.13563 | 10.73041 | 35234 ft | 498 kts | 92° |
| 2026-04-15 12:30 | 52.12582 | 10.84255 | 35238 ft | 500 kts | 97° |
| 2026-04-15 12:31 | 52.11180 | 10.95353 | 35239 ft | 501 kts | 98° |
| 2026-04-15 12:31 | 52.09690 | 11.06365 | 35241 ft | 501 kts | 98° |
| 2026-04-15 12:32 | 52.08166 | 11.17446 | 35241 ft | 501 kts | 98° |
| 2026-04-15 12:32 | 52.06639 | 11.28519 | 35244 ft | 501 kts | 98° |
| 2026-04-15 12:33 | 52.05107 | 11.39600 | 35246 ft | 501 kts | 98° |
| 2026-04-15 12:33 | 52.03574 | 11.50600 | 35246 ft | 502 kts | 98° |
| 2026-04-15 12:34 | 52.02083 | 11.61221 | 35256 ft | 502 kts | 98° |
| 2026-04-15 12:34 | 52.00530 | 11.72212 | 35254 ft | 502 kts | 98° |
| 2026-04-15 12:35 | 51.98901 | 11.83268 | 35268 ft | 503 kts | 100° |
| 2026-04-15 12:35 | 51.97047 | 11.94213 | 35250 ft | 503 kts | 101° |
| 2026-04-15 12:36 | 51.95126 | 12.05143 | 35245 ft | 503 kts | 101° |
| 2026-04-15 12:36 | 51.93218 | 12.16035 | 35247 ft | 503 kts | 101° |
| 2026-04-15 12:37 | 51.91309 | 12.26974 | 35247 ft | 503 kts | 101° |
| 2026-04-15 12:37 | 51.89409 | 12.37828 | 35247 ft | 502 kts | 101° |
| 2026-04-15 12:38 | 51.87492 | 12.48713 | 35246 ft | 502 kts | 101° |
| 2026-04-15 12:38 | 51.85571 | 12.59555 | 35251 ft | 502 kts | 101° |
| 2026-04-15 12:39 | 51.83632 | 12.70431 | 35252 ft | 502 kts | 101° |
| 2026-04-15 12:39 | 51.81701 | 12.81189 | 35253 ft | 500 kts | 101° |
| 2026-04-15 12:40 | 51.79753 | 12.91974 | 35246 ft | 499 kts | 101° |
| 2026-04-15 12:40 | 51.77799 | 13.02742 | 35248 ft | 499 kts | 101° |
| 2026-04-15 12:41 | 51.75846 | 13.13436 | 35267 ft | 499 kts | 101° |
| 2026-04-15 12:41 | 51.73873 | 13.24180 | 35264 ft | 498 kts | 101° |
| 2026-04-15 12:42 | 51.72225 | 13.33097 | 35261 ft | 498 kts | 101° |
| 2026-04-15 12:42 | 51.69913 | 13.45545 | 35252 ft | 498 kts | 102° |
| 2026-04-15 12:43 | 51.68248 | 13.54460 | 35257 ft | 498 kts | 102° |
| 2026-04-15 12:43 | 51.66241 | 13.65149 | 35246 ft | 498 kts | 102° |
| 2026-04-15 12:44 | 51.64236 | 13.75760 | 35249 ft | 498 kts | 102° |
| 2026-04-15 12:44 | 51.62207 | 13.86446 | 35251 ft | 498 kts | 102° |
| 2026-04-15 12:45 | 51.60169 | 13.97114 | 35249 ft | 498 kts | 102° |
| 2026-04-15 12:45 | 51.58134 | 14.07710 | 35248 ft | 498 kts | 102° |
| 2026-04-15 12:46 | 51.56071 | 14.18386 | 35243 ft | 498 kts | 102° |
| 2026-04-15 12:46 | 51.54016 | 14.28969 | 35246 ft | 498 kts | 102° |
| 2026-04-15 12:47 | 51.51939 | 14.39601 | 35249 ft | 498 kts | 102° |
| 2026-04-15 12:47 | 51.49845 | 14.50262 | 35250 ft | 498 kts | 102° |
| 2026-04-15 12:48 | 51.47765 | 14.60794 | 35249 ft | 498 kts | 102° |
| 2026-04-15 12:48 | 51.45662 | 14.71384 | 35247 ft | 498 kts | 102° |
| 2026-04-15 12:49 | 51.43549 | 14.81967 | 35244 ft | 498 kts | 102° |
| 2026-04-15 12:49 | 51.41438 | 14.92483 | 35243 ft | 498 kts | 102° |
| 2026-04-15 12:50 | 51.39117 | 15.02972 | 35249 ft | 501 kts | 106° |
| 2026-04-15 12:50 | 51.36490 | 15.13337 | 35243 ft | 502 kts | 107° |
| 2026-04-15 12:51 | 51.33824 | 15.23670 | 35241 ft | 502 kts | 107° |
| 2026-04-15 12:51 | 51.31196 | 15.33952 | 35244 ft | 502 kts | 107° |
| 2026-04-15 12:52 | 51.28560 | 15.44312 | 35258 ft | 502 kts | 107° |
| 2026-04-15 12:52 | 51.25941 | 15.54586 | 35245 ft | 501 kts | 107° |
| 2026-04-15 12:53 | 51.23298 | 15.64909 | 35246 ft | 501 kts | 107° |
| 2026-04-15 12:53 | 51.20663 | 15.75142 | 35245 ft | 500 kts | 107° |
| 2026-04-15 12:54 | 51.18007 | 15.85401 | 35252 ft | 499 kts | 107° |
| 2026-04-15 12:54 | 51.15348 | 15.95631 | 35254 ft | 499 kts | 107° |
| 2026-04-15 12:55 | 51.12702 | 16.05773 | 35253 ft | 498 kts | 107° |
| 2026-04-15 12:55 | 51.10030 | 16.15966 | 35251 ft | 499 kts | 107° |
| 2026-04-15 12:56 | 51.07360 | 16.26105 | 35254 ft | 499 kts | 107° |
| 2026-04-15 12:56 | 51.04666 | 16.36287 | 35252 ft | 497 kts | 108° |
| 2026-04-15 12:57 | 51.01992 | 16.46349 | 35252 ft | 496 kts | 108° |
| 2026-04-15 12:57 | 50.99298 | 16.56446 | 35252 ft | 496 kts | 108° |
| 2026-04-15 12:58 | 50.96588 | 16.66555 | 35250 ft | 496 kts | 108° |
| 2026-04-15 12:58 | 50.93891 | 16.76575 | 35252 ft | 495 kts | 108° |
| 2026-04-15 12:59 | 50.89814 | 16.91627 | 35257 ft | 494 kts | 109° |
| 2026-04-15 12:59 | 50.87110 | 17.01565 | 35255 ft | 494 kts | 109° |
| 2026-04-15 13:00 | 50.84377 | 17.11563 | 35253 ft | 494 kts | 109° |
| 2026-04-15 13:00 | 50.81649 | 17.21499 | 35247 ft | 493 kts | 109° |
| 2026-04-15 13:01 | 50.78900 | 17.31468 | 35243 ft | 492 kts | 109° |
| 2026-04-15 13:01 | 50.76170 | 17.41326 | 35244 ft | 492 kts | 109° |
| 2026-04-15 13:02 | 50.73409 | 17.51257 | 35238 ft | 493 kts | 109° |
| 2026-04-15 13:02 | 50.70660 | 17.61101 | 35239 ft | 492 kts | 110° |
| 2026-04-15 13:03 | 50.67893 | 17.70966 | 35237 ft | 490 kts | 110° |
| 2026-04-15 13:03 | 50.65127 | 17.80795 | 35236 ft | 489 kts | 110° |
| 2026-04-15 13:04 | 50.62362 | 17.90576 | 35233 ft | 489 kts | 110° |
| 2026-04-15 13:04 | 50.59579 | 18.00385 | 35236 ft | 489 kts | 111° |
| 2026-04-15 13:05 | 50.56809 | 18.10102 | 35235 ft | 489 kts | 111° |
| 2026-04-15 13:05 | 50.54008 | 18.19858 | 35232 ft | 490 kts | 113° |
| 2026-04-15 13:06 | 50.50132 | 18.28737 | 35238 ft | 494 kts | 129° |
| 2026-04-15 13:06 | 50.45511 | 18.36671 | 35236 ft | 496 kts | 132° |
| 2026-04-15 13:07 | 50.40695 | 18.44485 | 35236 ft | 496 kts | 132° |
| 2026-04-15 13:07 | 50.35913 | 18.52214 | 35237 ft | 496 kts | 132° |
| 2026-04-15 13:08 | 50.31113 | 18.60013 | 35236 ft | 496 kts | 132° |
| 2026-04-15 13:08 | 50.26360 | 18.67744 | 35235 ft | 494 kts | 132° |
| 2026-04-15 13:09 | 50.21586 | 18.75492 | 35239 ft | 492 kts | 133° |
| 2026-04-15 13:09 | 50.16835 | 18.83177 | 35238 ft | 491 kts | 133° |
| 2026-04-15 13:10 | 50.12111 | 18.90792 | 35241 ft | 491 kts | 133° |
| 2026-04-15 13:10 | 50.07346 | 18.98450 | 35241 ft | 491 kts | 133° |
| 2026-04-15 13:11 | 50.02801 | 19.05734 | 35247 ft | 491 kts | 134° |
| 2026-04-15 13:11 | 49.98032 | 19.13353 | 35247 ft | 490 kts | 134° |
| 2026-04-15 13:12 | 49.93305 | 19.20882 | 35237 ft | 488 kts | 134° |
| 2026-04-15 13:12 | 49.88547 | 19.28439 | 35235 ft | 488 kts | 134° |
| 2026-04-15 13:13 | 49.83815 | 19.35932 | 35237 ft | 488 kts | 134° |
| 2026-04-15 13:13 | 49.79050 | 19.43455 | 35238 ft | 488 kts | 134° |
| 2026-04-15 13:14 | 49.74294 | 19.50939 | 35224 ft | 487 kts | 135° |
| 2026-04-15 13:14 | 49.69532 | 19.58412 | 35229 ft | 487 kts | 135° |
| 2026-04-15 13:15 | 49.64800 | 19.65815 | 35228 ft | 487 kts | 135° |
| 2026-04-15 13:15 | 49.60025 | 19.73266 | 35229 ft | 486 kts | 135° |
| 2026-04-15 13:16 | 49.55258 | 19.80681 | 35225 ft | 486 kts | 135° |
| 2026-04-15 13:16 | 49.50518 | 19.88032 | 35224 ft | 486 kts | 135° |
| 2026-04-15 13:17 | 49.45746 | 19.95409 | 35222 ft | 485 kts | 135° |
| 2026-04-15 13:17 | 49.40968 | 20.02776 | 35220 ft | 485 kts | 136° |
| 2026-04-15 13:18 | 49.38642 | 20.06356 | 35214 ft | 473 kts | 136° |
| 2026-04-15 13:18 | 49.36337 | 20.09900 | 35213 ft | 463 kts | 136° |
| 2026-04-15 13:18 | 49.31806 | 20.16843 | 35196 ft | 460 kts | 136° |
| 2026-04-15 13:19 | 49.27182 | 20.23648 | 35197 ft | 460 kts | 137° |
| 2026-04-15 13:19 | 49.22518 | 20.30316 | 35189 ft | 460 kts | 138° |
| 2026-04-15 13:20 | 49.17829 | 20.37003 | 35199 ft | 460 kts | 138° |
| 2026-04-15 13:20 | 49.13150 | 20.43683 | 35197 ft | 459 kts | 138° |
| 2026-04-15 13:21 | 49.08512 | 20.50301 | 35208 ft | 459 kts | 138° |
| 2026-04-15 13:21 | 49.03838 | 20.56954 | 35204 ft | 459 kts | 138° |
| 2026-04-15 13:22 | 48.99186 | 20.63559 | 35183 ft | 459 kts | 138° |
| 2026-04-15 13:22 | 48.94502 | 20.70192 | 35184 ft | 459 kts | 139° |
| 2026-04-15 13:23 | 48.89813 | 20.76809 | 35186 ft | 460 kts | 139° |
| 2026-04-15 13:23 | 48.85146 | 20.83381 | 35186 ft | 460 kts | 139° |
| 2026-04-15 13:24 | 48.80448 | 20.89978 | 35185 ft | 459 kts | 139° |
| 2026-04-15 13:24 | 48.75711 | 20.96611 | 34587 ft | 467 kts | 139° |
| 2026-04-15 13:25 | 48.73309 | 20.99968 | 33630 ft | 472 kts | 140° |
| 2026-04-15 13:25 | 48.70876 | 21.03363 | 32678 ft | 476 kts | 140° |
| 2026-04-15 13:25 | 48.68438 | 21.06762 | 31969 ft | 474 kts | 140° |
| 2026-04-15 13:25 | 48.66058 | 21.10078 | 31474 ft | 468 kts | 140° |
| 2026-04-15 13:26 | 48.63661 | 21.13414 | 30842 ft | 466 kts | 140° |
| 2026-04-15 13:26 | 48.61283 | 21.16717 | 30316 ft | 461 kts | 140° |
| 2026-04-15 13:26 | 48.58926 | 21.19987 | 29593 ft | 458 kts | 140° |
| 2026-04-15 13:26 | 48.56591 | 21.23220 | 28991 ft | 453 kts | 140° |
| 2026-04-15 13:27 | 48.54305 | 21.26381 | 28411 ft | 449 kts | 140° |
| 2026-04-15 13:27 | 48.52023 | 21.29579 | 27826 ft | 445 kts | 138° |
| 2026-04-15 13:27 | 48.49850 | 21.32877 | 27289 ft | 441 kts | 136° |
| 2026-04-15 13:27 | 48.47748 | 21.36238 | 26747 ft | 437 kts | 135° |
| 2026-04-15 13:28 | 48.45694 | 21.39594 | 26207 ft | 433 kts | 134° |
| 2026-04-15 13:28 | 48.43656 | 21.42937 | 25666 ft | 430 kts | 134° |
| 2026-04-15 13:28 | 48.41666 | 21.46186 | 25149 ft | 427 kts | 134° |
| 2026-04-15 13:28 | 48.39645 | 21.49464 | 24605 ft | 424 kts | 134° |
| 2026-04-15 13:29 | 48.37635 | 21.52700 | 24083 ft | 421 kts | 134° |
| 2026-04-15 13:29 | 48.35636 | 21.55904 | 23519 ft | 418 kts | 135° |
| 2026-04-15 13:29 | 48.33652 | 21.59073 | 22957 ft | 414 kts | 135° |
| 2026-04-15 13:29 | 48.31681 | 21.62213 | 22431 ft | 409 kts | 135° |
| 2026-04-15 13:30 | 48.29734 | 21.65313 | 21899 ft | 405 kts | 135° |
| 2026-04-15 13:30 | 48.27831 | 21.68337 | 21396 ft | 400 kts | 134° |
| 2026-04-15 13:30 | 48.25928 | 21.71359 | 20882 ft | 396 kts | 134° |
| 2026-04-15 13:30 | 48.24040 | 21.74355 | 20381 ft | 392 kts | 134° |
| 2026-04-15 13:31 | 48.22174 | 21.77311 | 19875 ft | 389 kts | 134° |
| 2026-04-15 13:31 | 48.20312 | 21.80260 | 19371 ft | 386 kts | 134° |
| 2026-04-15 13:31 | 48.19092 | 21.82189 | 19035 ft | 383 kts | 134° |
| 2026-04-15 13:31 | 48.16668 | 21.86018 | 18363 ft | 379 kts | 134° |
| 2026-04-15 13:32 | 48.14860 | 21.88871 | 17821 ft | 375 kts | 134° |
| 2026-04-15 13:32 | 48.13650 | 21.90778 | 17494 ft | 371 kts | 134° |
| 2026-04-15 13:32 | 48.11878 | 21.93571 | 17011 ft | 366 kts | 134° |
| 2026-04-15 13:32 | 48.10125 | 21.96329 | 16374 ft | 367 kts | 134° |
| 2026-04-15 13:33 | 48.08393 | 21.99050 | 15856 ft | 364 kts | 134° |
| 2026-04-15 13:33 | 48.06661 | 22.01770 | 15383 ft | 359 kts | 134° |
| 2026-04-15 13:33 | 48.04946 | 22.04461 | 14919 ft | 354 kts | 135° |
| 2026-04-15 13:33 | 48.03267 | 22.07092 | 14617 ft | 345 kts | 134° |
| 2026-04-15 13:34 | 48.01620 | 22.09673 | 14194 ft | 340 kts | 135° |
| 2026-04-15 13:34 | 47.99993 | 22.12216 | 13711 ft | 337 kts | 135° |
| 2026-04-15 13:34 | 47.98382 | 22.14734 | 13248 ft | 332 kts | 135° |
| 2026-04-15 13:34 | 47.96796 | 22.17208 | 12811 ft | 327 kts | 135° |
| 2026-04-15 13:35 | 47.95252 | 22.19614 | 12385 ft | 322 kts | 135° |
| 2026-04-15 13:35 | 47.93710 | 22.22017 | 11956 ft | 319 kts | 135° |
| 2026-04-15 13:35 | 47.92178 | 22.24400 | 11532 ft | 317 kts | 135° |
| 2026-04-15 13:35 | 47.90655 | 22.26768 | 11108 ft | 315 kts | 135° |
| 2026-04-15 13:36 | 47.89137 | 22.29126 | 10694 ft | 314 kts | 135° |
| 2026-04-15 13:36 | 47.87629 | 22.31466 | 10332 ft | 310 kts | 135° |
| 2026-04-15 13:36 | 47.86173 | 22.33726 | 10254 ft | 294 kts | 135° |
| 2026-04-15 13:36 | 47.84769 | 22.35903 | 9943 ft | 291 kts | 135° |
| 2026-04-15 13:37 | 47.83372 | 22.38065 | 9490 ft | 290 kts | 135° |
| 2026-04-15 13:37 | 47.81979 | 22.40220 | 9119 ft | 287 kts | 135° |
| 2026-04-15 13:37 | 47.80607 | 22.42375 | 8726 ft | 285 kts | 130° |
| 2026-04-15 13:37 | 47.79572 | 22.44876 | 8364 ft | 283 kts | 113° |
| 2026-04-15 13:38 | 47.78893 | 22.47612 | 7988 ft | 281 kts | 108° |
| 2026-04-15 13:38 | 47.78374 | 22.50412 | 7629 ft | 279 kts | 104° |
| 2026-04-15 13:38 | 47.77955 | 22.53189 | 7272 ft | 277 kts | 102° |
| 2026-04-15 13:38 | 47.77574 | 22.55990 | 6908 ft | 276 kts | 101° |
| 2026-04-15 13:39 | 47.77204 | 22.58782 | 6537 ft | 274 kts | 101° |
| 2026-04-15 13:39 | 47.76831 | 22.61546 | 6217 ft | 269 kts | 101° |
| 2026-04-15 13:39 | 47.76461 | 22.64213 | 6072 ft | 258 kts | 102° |
| 2026-04-15 13:39 | 47.76091 | 22.66809 | 5770 ft | 254 kts | 102° |
| 2026-04-15 13:40 | 47.75720 | 22.69357 | 5467 ft | 250 kts | 102° |
| 2026-04-15 13:40 | 47.75350 | 22.71867 | 5206 ft | 247 kts | 102° |
| 2026-04-15 13:40 | 47.74987 | 22.74318 | 4934 ft | 244 kts | 102° |
| 2026-04-15 13:40 | 47.74622 | 22.76770 | 4525 ft | 241 kts | 102° |
| 2026-04-15 13:41 | 47.74261 | 22.79193 | 3947 ft | 239 kts | 102° |
| 2026-04-15 13:41 | 47.73901 | 22.81606 | 3391 ft | 238 kts | 101° |
| 2026-04-15 13:41 | 47.73601 | 22.84023 | 3021 ft | 238 kts | 89° |
| 2026-04-15 13:41 | 47.73990 | 22.86352 | 3023 ft | 234 kts | 58° |
| 2026-04-15 13:42 | 47.74931 | 22.88333 | 3034 ft | 235 kts | 53° |
| 2026-04-15 13:42 | 47.75921 | 22.90268 | 3026 ft | 234 kts | 52° |
| 2026-04-15 13:42 | 47.76893 | 22.92115 | 3012 ft | 216 kts | 48° |
| 2026-04-15 13:42 | 47.77956 | 22.93603 | 3008 ft | 207 kts | 39° |
| 2026-04-15 13:43 | 47.79117 | 22.94960 | 3003 ft | 229 kts | 37° |
| 2026-04-15 13:43 | 47.80456 | 22.96394 | 2995 ft | 241 kts | 35° |
| 2026-04-15 13:43 | 47.81843 | 22.97810 | 3004 ft | 236 kts | 34° |
| 2026-04-15 13:43 | 47.83139 | 22.99109 | 3010 ft | 213 kts | 33° |
| 2026-04-15 13:44 | 47.84322 | 23.00269 | 3016 ft | 196 kts | 33° |
| 2026-04-15 13:44 | 47.85449 | 23.01391 | 3009 ft | 194 kts | 33° |
| 2026-04-15 13:44 | 47.86573 | 23.02503 | 3007 ft | 194 kts | 27° |
| 2026-04-15 13:44 | 47.87846 | 23.02990 | 3007 ft | 193 kts | 359° |
| 2026-04-15 13:45 | 47.89134 | 23.02504 | 3015 ft | 193 kts | 333° |
| 2026-04-15 13:45 | 47.90145 | 23.01243 | 3005 ft | 191 kts | 303° |
| 2026-04-15 13:45 | 47.90665 | 22.99416 | 3018 ft | 194 kts | 286° |
| 2026-04-15 13:47 | 47.83322 | 22.93041 | 2853 ft | 199 kts | 192° |
| 2026-04-15 13:47 | 47.81972 | 22.92569 | 2586 ft | 193 kts | 192° |
| 2026-04-15 13:47 | 47.80717 | 22.92137 | 2331 ft | 176 kts | 192° |
| 2026-04-15 13:48 | 47.79583 | 22.91746 | 2076 ft | 164 kts | 193° |
| 2026-04-15 13:48 | 47.78497 | 22.91371 | 1848 ft | 157 kts | 193° |
| 2026-04-15 13:48 | 47.77459 | 22.91012 | 1638 ft | 149 kts | 193° |
| 2026-04-15 13:48 | 47.76454 | 22.90666 | 1441 ft | 148 kts | 193° |
| 2026-04-15 13:49 | 47.75448 | 22.90319 | 1251 ft | 148 kts | 194° |
| 2026-04-15 13:49 | 47.74446 | 22.89973 | 1051 ft | 146 kts | 195° |
| 2026-04-15 13:49 | 47.73471 | 22.89636 | 848 ft | 141 kts | 193° |
| 2026-04-15 13:49 | 47.72517 | 22.89320 | 676 ft | 139 kts | 194° |
| 2026-04-15 13:50 | 47.71577 | 22.88998 | 479 ft | 138 kts | 194° |
| 2026-04-15 13:50 | 47.70695 | 22.88694 | 420 ft | 118 kts | 192° |
| 2026-04-15 13:50 | 47.70060 | 22.88469 | 423 ft | 59 kts | 193° |
| 2026-04-15 13:50 | 47.69899 | 22.88425 | 416 ft | 12 kts | 183° |
| 2026-04-15 13:51 | 47.69827 | 22.88409 | 421 ft | 0 kts | 229° |
| 2026-04-15 13:51 | 47.69823 | 22.88395 | 419 ft | 6 kts | 252° |
| 2026-04-15 13:51 | 47.69829 | 22.88375 | 419 ft | 5 kts | 320° |
| 2026-04-15 13:51 | 47.69895 | 22.88386 | 419 ft | 19 kts | 17° |
| 2026-04-15 13:52 | 47.70045 | 22.88454 | 424 ft | 23 kts | 17° |
| 2026-04-15 13:52 | 47.70201 | 22.88508 | 410 ft | 23 kts | 13° |
| 2026-04-15 13:52 | 47.70350 | 22.88563 | 415 ft | 21 kts | 14° |
| 2026-04-15 13:52 | 47.70476 | 22.88610 | 409 ft | 8 kts | 14° |
| 2026-04-15 13:53 | 47.70519 | 22.88625 | 412 ft | 1 kts | 13° |
| 2026-04-15 13:53 | 47.70533 | 22.88626 | 413 ft | 3 kts | 354° |
| 2026-04-15 13:53 | 47.70554 | 22.88613 | 415 ft | 4 kts | 326° |
| 2026-04-15 13:53 | 47.70574 | 22.88567 | 412 ft | 6 kts | 289° |
| 2026-04-15 13:54 | 47.70588 | 22.88488 | 415 ft | 9 kts | 283° |
| 2026-04-15 13:54 | 47.70603 | 22.88397 | 415 ft | 9 kts | 284° |
| 2026-04-15 13:54 | 47.70634 | 22.88353 | 418 ft | 3 kts | 344° |
| 2026-04-15 13:54 | 47.70642 | 22.88352 | 413 ft | 2 kts | 358° |
| 2026-04-15 13:55 | 47.70651 | 22.88353 | 414 ft | 0 kts | 2° |